createdAt,value
2023-11-09T00:00:50.208Z,98767.48
2023-11-09T00:05:52.824Z,98771.65
2023-11-09T00:11:08.175Z,98770.04
2023-11-09T00:16:15.202Z,98767.30
2023-11-09T00:21:18.528Z,98768.66
2023-11-09T00:26:25.702Z,98771.35
2023-11-09T00:31:50.257Z,98770.90
2023-11-09T00:36:53.244Z,98769.36
2023-11-09T00:42:01.709Z,98760.70
2023-11-09T00:47:09.971Z,98752.38
2023-11-09T00:52:15.384Z,98742.61
2023-11-09T00:57:22.501Z,98741.23
2023-11-09T01:02:30.084Z,98738.58
2023-11-09T01:07:35.475Z,98742.83
2023-11-09T01:12:38.404Z,98746.22
2023-11-09T01:18:19.721Z,98744.45
2023-11-09T01:23:35.632Z,98740.28
2023-11-09T01:28:38.677Z,98734.16
2023-11-09T01:33:43.203Z,98734.36
2023-11-09T01:38:49.861Z,98733.95
2023-11-09T01:44:05.113Z,98724.77
2023-11-09T01:49:14.496Z,98727.80
2023-11-09T01:54:19.892Z,98720.11
2023-11-09T01:59:29.565Z,98716.71
2023-11-09T02:04:56.094Z,98716.98
2023-11-09T02:10:15.004Z,98718.11
2023-11-09T02:15:42.742Z,98717.95
2023-11-09T02:21:02.449Z,98719.41
2023-11-09T02:26:06.344Z,98720.64
2023-11-09T02:31:10.037Z,98721.84
2023-11-09T02:36:15.904Z,98724.11
2023-11-09T02:41:20.253Z,98719.23
2023-11-09T02:46:24.019Z,98713.05
2023-11-09T02:51:28.922Z,98715.60
2023-11-09T02:56:37.833Z,98715.91
2023-11-09T03:01:42.893Z,98713.40
2023-11-09T03:06:46.133Z,98708.90
2023-11-09T03:11:48.928Z,98707.86
2023-11-09T03:16:52.328Z,98707.09
2023-11-09T03:21:59.611Z,98706.27
2023-11-09T03:27:10.742Z,98707.31
2023-11-09T03:32:31.334Z,98705.36
2023-11-09T03:37:39.044Z,98705.07
2023-11-09T03:42:43.885Z,98702.85
2023-11-09T03:47:46.274Z,98701.71
2023-11-09T03:52:51.620Z,98700.42
2023-11-09T03:57:59.488Z,98696.58
2023-11-09T04:03:02.657Z,98698.73
2023-11-09T04:08:05.574Z,98695.12
2023-11-09T04:13:16.922Z,98692.39
2023-11-09T04:18:29.319Z,98689.42
2023-11-09T04:23:46.529Z,98675.52
2023-11-09T04:28:54.583Z,98669.73
2023-11-09T04:34:11.200Z,98662.58
2023-11-09T04:39:56.246Z,98658.21
2023-11-09T04:45:02.739Z,98653.94
2023-11-09T04:50:16.806Z,98653.00
2023-11-09T04:55:33.930Z,98645.27
2023-11-09T05:01:01.864Z,98645.02
2023-11-09T05:06:25.811Z,98633.02
2023-11-09T05:12:05.579Z,98629.07
2023-11-09T05:17:41.465Z,98620.34
2023-11-09T05:22:48.269Z,98625.05
2023-11-09T05:28:04.343Z,98622.09
2023-11-09T05:33:07.946Z,98612.60
2023-11-09T05:38:40.345Z,98607.66
2023-11-09T05:43:46.900Z,98607.02
2023-11-09T05:49:22.480Z,98608.42
2023-11-09T05:54:26.911Z,98609.21
2023-11-09T05:59:36.466Z,98612.53
2023-11-09T06:04:43.362Z,98613.50
2023-11-09T06:09:46.985Z,98610.80
2023-11-09T06:14:50.812Z,98604.77
2023-11-09T06:19:53.619Z,98599.30
2023-11-09T06:25:06.462Z,98597.61
2023-11-09T06:30:15.001Z,98594.13
2023-11-09T06:35:19.753Z,98590.01
2023-11-09T06:40:22.563Z,98593.66
2023-11-09T06:45:39.884Z,98595.98
2023-11-09T06:50:45.907Z,98598.54
2023-11-09T06:55:52.748Z,98596.25
2023-11-09T07:01:20.270Z,98587.38
2023-11-09T07:06:51.793Z,98585.61
2023-11-09T07:12:01.507Z,98577.67
2023-11-09T07:17:07.982Z,98571.33
2023-11-09T07:23:04.144Z,98563.89
2023-11-09T07:28:32.992Z,98558.34
2023-11-09T07:34:22.577Z,98551.86
2023-11-09T07:39:37.086Z,98546.50
2023-11-09T07:44:50.834Z,98540.77
2023-11-09T07:50:01.114Z,98539.84
2023-11-09T07:55:09.510Z,98533.90
2023-11-09T08:00:32.270Z,98528.89
2023-11-09T08:05:42.713Z,98518.89
2023-11-09T08:10:49.059Z,98527.95
2023-11-09T08:15:53.976Z,98532.11
2023-11-09T08:21:10.329Z,98527.71
2023-11-09T08:26:22.864Z,98528.16
2023-11-09T08:31:40.582Z,98521.84
2023-11-09T08:36:54.840Z,98513.98
2023-11-09T08:42:12.095Z,98511.96
2023-11-09T08:47:26.067Z,98506.98
2023-11-09T08:52:35.617Z,98500.96
2023-11-09T08:57:51.821Z,98501.27
2023-11-09T09:03:11.759Z,98497.21
2023-11-09T09:08:38.844Z,98501.34
2023-11-09T09:13:49.435Z,98500.63
2023-11-09T09:18:53.252Z,98497.71
2023-11-09T09:24:24.318Z,98489.78
2023-11-09T09:29:39.255Z,98487.94
2023-11-09T09:34:47.964Z,98476.93
2023-11-09T09:40:07.696Z,98473.89
2023-11-09T09:45:28.494Z,98472.48
2023-11-09T09:50:54.036Z,98475.65
2023-11-09T09:56:09.920Z,98475.75
2023-11-09T10:01:21.933Z,98480.98
2023-11-09T10:06:27.643Z,98474.88
2023-11-09T10:11:33.540Z,98472.50
2023-11-09T10:16:42.598Z,98469.04
2023-11-09T10:21:52.801Z,98459.77
2023-11-09T10:27:10.316Z,98456.30
2023-11-09T10:32:28.140Z,98451.60
2023-11-09T10:37:35.134Z,98444.18
2023-11-09T10:42:54.072Z,98433.70
2023-11-09T10:48:01.021Z,98422.08
2023-11-09T10:53:07.947Z,98423.05
2023-11-09T10:58:15.279Z,98419.17
2023-11-09T11:03:29.126Z,98416.64
2023-11-09T11:08:39.914Z,98412.89
2023-11-09T11:13:55.332Z,98406.09
2023-11-09T11:19:27.149Z,98404.45
2023-11-09T11:24:52.338Z,98393.70
2023-11-09T11:29:56.793Z,98385.89
2023-11-09T11:35:02.500Z,98383.81
2023-11-09T11:40:10.199Z,98378.70
2023-11-09T11:45:18.740Z,98379.00
2023-11-09T11:50:23.292Z,98367.80
2023-11-09T11:55:29.567Z,98363.63
2023-11-09T12:00:52.295Z,98346.93
2023-11-09T12:06:18.030Z,98345.08
2023-11-09T12:11:37.752Z,98342.50
2023-11-09T12:17:00.494Z,98330.51
2023-11-09T12:22:03.469Z,98327.20
2023-11-09T12:27:08.847Z,98331.53
2023-11-09T12:32:14.661Z,98331.84
2023-11-09T12:37:19.660Z,98325.02
2023-11-09T12:42:52.608Z,98318.30
2023-11-09T12:47:58.067Z,98310.30
2023-11-09T12:53:20.160Z,98305.84
2023-11-09T12:58:28.697Z,98299.26
2023-11-09T13:03:55.930Z,98296.30
2023-11-09T13:09:31.770Z,98288.77
2023-11-09T13:14:48.686Z,98284.00
2023-11-09T13:19:54.284Z,98282.73
2023-11-09T13:25:06.286Z,98278.40
2023-11-09T13:30:53.586Z,98271.51
2023-11-09T13:36:11.705Z,98263.73
2023-11-09T13:41:40.571Z,98265.17
2023-11-09T13:47:03.979Z,98270.33
2023-11-09T13:52:15.470Z,98264.52
2023-11-09T13:57:20.846Z,98267.41
2023-11-09T14:02:43.654Z,98266.84
2023-11-09T14:08:04.136Z,98265.86
2023-11-09T14:13:49.663Z,98266.48
2023-11-09T14:19:00.775Z,98270.27
2023-11-09T14:24:11.885Z,98273.51
2023-11-09T14:29:19.192Z,98268.91
2023-11-09T14:34:22.602Z,98274.55
2023-11-09T14:39:50.112Z,98271.63
2023-11-09T14:44:55.179Z,98267.80
2023-11-09T14:50:00.104Z,98264.42
2023-11-09T14:55:15.529Z,98266.84
2023-11-09T15:00:24.710Z,98269.21
2023-11-09T15:05:32.043Z,98270.45
2023-11-09T15:10:58.197Z,98273.45
2023-11-09T15:16:04.785Z,98269.98
2023-11-09T15:21:12.554Z,98268.86
2023-11-09T15:26:15.458Z,98278.05
2023-11-09T15:31:19.716Z,98280.80
2023-11-09T15:36:29.002Z,98279.41
2023-11-09T15:41:33.046Z,98278.21
2023-11-09T15:46:47.218Z,98277.44
2023-11-09T15:51:52.067Z,98274.48
2023-11-09T15:56:58.086Z,98267.77
2023-11-09T16:02:01.075Z,98272.71
2023-11-09T16:07:07.795Z,98271.46
2023-11-09T16:12:15.751Z,98272.49
2023-11-09T16:17:20.333Z,98272.83
2023-11-09T16:22:23.334Z,98269.05
2023-11-09T16:27:36.772Z,98273.09
2023-11-09T16:32:42.827Z,98275.06
2023-11-09T16:37:54.572Z,98279.39
2023-11-09T16:42:58.256Z,98275.01
2023-11-09T16:48:01.473Z,98272.24
2023-11-09T16:53:05.105Z,98265.75
2023-11-09T16:58:12.633Z,98262.42
2023-11-09T17:03:25.311Z,98261.83
2023-11-09T17:08:38.601Z,98262.15
2023-11-09T17:13:42.630Z,98259.16
2023-11-09T17:18:47.369Z,98250.92
2023-11-09T17:23:51.021Z,98249.86
2023-11-09T17:28:54.888Z,98246.09
2023-11-09T17:33:58.391Z,98243.27
2023-11-09T17:39:01.474Z,98242.41
2023-11-09T17:44:24.745Z,98235.74
2023-11-09T17:49:34.386Z,98236.80
2023-11-09T17:54:54.262Z,98232.75
2023-11-09T17:59:57.779Z,98228.79
2023-11-09T18:05:05.796Z,98234.13
2023-11-09T18:10:09.079Z,98230.61
2023-11-09T18:15:16.129Z,98232.45
2023-11-09T18:20:21.236Z,98228.56
2023-11-09T18:25:25.513Z,98228.00
2023-11-09T18:30:34.197Z,98229.92
2023-11-09T18:35:36.652Z,98227.29
2023-11-09T18:40:39.343Z,98220.02
2023-11-09T18:46:06.190Z,98216.38
2023-11-09T18:51:12.098Z,98210.38
2023-11-09T18:56:24.701Z,98203.52
2023-11-09T19:01:28.528Z,98197.52
2023-11-09T19:06:31.961Z,98195.52
2023-11-09T19:11:34.804Z,98193.19
2023-11-09T19:16:39.248Z,98188.59
2023-11-09T19:27:08.384Z,98194.47
2023-11-09T19:32:14.856Z,98194.58
2023-11-09T19:37:23.087Z,98192.77
2023-11-09T19:42:32.515Z,98189.36
2023-11-09T19:47:35.640Z,98186.95
2023-11-09T19:52:55.458Z,98177.23
2023-11-09T19:57:59.362Z,98169.14
2023-11-09T20:03:06.805Z,98163.33
2023-11-09T20:08:19.990Z,98157.95
2023-11-09T20:13:31.850Z,98149.98
2023-11-09T20:18:37.986Z,98148.36
2023-11-09T20:23:41.323Z,98141.64
2023-11-09T20:29:11.466Z,98137.46
2023-11-09T20:34:20.019Z,98139.58
2023-11-09T20:39:23.940Z,98141.35
2023-11-09T20:44:30.203Z,98139.45
2023-11-09T20:49:38.197Z,98134.96
2023-11-09T20:54:43.785Z,98128.55
2023-11-09T20:59:47.189Z,98127.55
2023-11-09T21:05:09.671Z,98127.65
2023-11-09T21:10:18.896Z,98120.84
2023-11-09T21:15:22.713Z,98118.30
2023-11-09T21:20:32.635Z,98114.21
2023-11-09T21:25:35.333Z,98108.30
2023-11-09T21:30:47.558Z,98098.45
2023-11-09T21:35:50.269Z,98088.33
2023-11-09T21:40:52.811Z,98077.33
2023-11-09T21:46:09.856Z,98081.86
2023-11-09T21:51:12.875Z,98079.09
2023-11-09T21:56:18.429Z,98071.36
2023-11-09T22:01:26.368Z,98067.93
2023-11-09T22:06:33.250Z,98065.77
2023-11-09T22:11:41.474Z,98065.41
2023-11-09T22:16:44.776Z,98068.76
2023-11-09T22:21:50.978Z,98064.05
2023-11-09T22:26:57.980Z,98067.98
2023-11-09T22:32:01.649Z,98065.30
2023-11-09T22:37:05.743Z,98074.05
2023-11-09T22:42:08.546Z,98074.48
2023-11-09T22:47:11.522Z,98077.68
2023-11-09T22:52:15.001Z,98078.48
2023-11-09T22:57:18.105Z,98076.79
2023-11-09T23:02:35.845Z,98068.80
2023-11-09T23:07:41.203Z,98065.02
2023-11-09T23:12:47.541Z,98060.72
2023-11-09T23:17:50.323Z,98050.15
2023-11-09T23:23:04.855Z,98051.85
2023-11-09T23:28:07.277Z,98043.77
2023-11-09T23:33:13.698Z,98040.32
2023-11-09T23:38:19.851Z,98037.11
2023-11-09T23:43:24.736Z,98035.67
2023-11-09T23:48:27.921Z,98031.98
2023-11-09T23:53:37.110Z,98029.80
2023-11-09T23:58:39.822Z,98027.20
